Time;durP1;ratioP1;P1;durP2;ratioP2;P2;SDS_P1;SDS_P2;PMS_P1;PMS_P2;Temp;Humidity;BMP_temperature;BMP_pressure;BME280_temperature;BME280_humidity;BME280_pressure;Samples;Min_cycle;Max_cycle;Signal;HPM_P1;HPM_P2
2022/09/13 00:00:49;;;;;;;3.72;1.90;;;13.50;90.80;;;;;;5072509;28;20190;-63
2022/09/13 00:03:17;;;;;;;4.35;2.20;;;13.50;90.50;;;;;;5072207;28;20709;-63
2022/09/13 00:05:45;;;;;;;4.35;1.90;;;13.40;90.30;;;;;;5071861;28;20196;-63
2022/09/13 00:08:12;;;;;;;2.35;1.73;;;13.30;90.50;;;;;;5072054;28;20194;-64
2022/09/13 00:10:41;;;;;;;2.70;1.90;;;13.30;90.90;;;;;;5071048;28;20217;-63
2022/09/13 00:13:12;;;;;;;3.72;2.28;;;13.30;91.00;;;;;;5072563;28;20193;-64
2022/09/13 00:15:46;;;;;;;2.63;1.60;;;13.30;91.00;;;;;;5071852;28;20220;-64
2022/09/13 00:18:14;;;;;;;3.08;2.45;;;13.30;91.20;;;;;;5072287;28;20200;-63
2022/09/13 00:20:41;;;;;;;2.88;2.10;;;13.30;91.20;;;;;;5071767;28;20190;-64
2022/09/13 00:23:09;;;;;;;3.08;1.98;;;13.40;91.20;;;;;;5071735;28;20265;-64
2022/09/13 00:25:37;;;;;;;3.30;1.90;;;13.30;90.90;;;;;;5071916;28;20193;-63
2022/09/13 00:28:05;;;;;;;2.60;1.85;;;13.30;90.90;;;;;;5072192;28;20216;-63
2022/09/13 00:30:33;;;;;;;2.70;1.80;;;13.30;90.80;;;;;;5071470;28;20687;-63
2022/09/13 00:33:03;;;;;;;3.35;1.45;;;13.30;90.40;;;;;;5072076;28;20190;-63
2022/09/13 00:35:31;;;;;;;3.13;1.75;;;13.30;89.60;;;;;;5071177;28;20280;-63
2022/09/13 00:38:00;;;;;;;7.10;1.65;;;13.20;88.80;;;;;;5072112;28;20193;-64
2022/09/13 00:40:29;;;;;;;2.30;1.50;;;13.20;89.30;;;;;;5071552;28;20276;-63
2022/09/13 00:42:56;;;;;;;4.15;1.73;;;13.10;90.10;;;;;;5072071;28;20299;-63
2022/09/13 00:45:23;;;;;;;3.00;2.05;;;13.10;89.40;;;;;;5071748;28;20272;-63
2022/09/13 00:47:56;;;;;;;4.55;2.00;;;13.00;88.80;;;;;;5071732;28;20644;-66
2022/09/13 00:50:29;;;;;;;3.13;1.73;;;13.00;89.00;;;;;;5071672;28;20220;-64
2022/09/13 00:53:02;;;;;;;3.85;1.75;;;13.00;89.20;;;;;;5071795;28;20194;-63
2022/09/13 00:55:34;;;;;;;2.92;1.67;;;12.90;89.20;;;;;;5070218;28;20193;-63
2022/09/13 00:58:06;;;;;;;2.63;1.48;;;12.90;88.80;;;;;;5071812;28;20231;-64
2022/09/13 01:00:33;;;;;;;8.23;2.17;;;12.90;88.90;;;;;;5071583;28;20202;-63
2022/09/13 01:03:06;;;;;;;2.72;1.73;;;12.90;88.60;;;;;;5071742;28;20307;-68
2022/09/13 01:05:38;;;;;;;2.35;1.27;;;12.80;88.50;;;;;;5071743;28;20190;-63
2022/09/13 01:08:11;;;;;;;3.85;2.00;;;12.80;88.30;;;;;;5071594;28;20687;-64
2022/09/13 01:10:40;;;;;;;2.63;1.88;;;12.70;87.90;;;;;;5071385;28;20213;-64
2022/09/13 01:13:13;;;;;;;2.40;1.55;;;12.60;89.60;;;;;;5071864;28;20193;-63
2022/09/13 01:15:41;;;;;;;2.35;1.50;;;12.60;90.10;;;;;;5071570;28;20255;-63
2022/09/13 01:18:12;;;;;;;2.42;1.52;;;12.50;90.10;;;;;;5071572;28;20694;-64
2022/09/13 01:20:48;;;;;;;3.08;1.50;;;12.50;90.30;;;;;;5071692;28;20235;-63
2022/09/13 01:23:49;;;;;;;2.65;1.75;;;12.50;90.40;;;;;;5075400;28;20193;-63
2022/09/13 01:27:08;;;;;;;2.80;1.60;;;12.50;90.30;;;;;;5055206;28;20244;-64
2022/09/13 01:30:03;;;;;;;2.70;1.60;;;12.50;90.30;;;;;;5026037;28;20225;-63
2022/09/13 01:32:44;;;;;;;4.38;1.70;;;12.30;89.90;;;;;;5062412;28;20265;-63
2022/09/13 01:35:22;;;;;;;3.67;2.30;;;12.30;90.00;;;;;;5075260;28;20240;-63
2022/09/13 01:37:55;;;;;;;2.53;1.30;;;12.20;90.20;;;;;;5074446;28;20200;-64
2022/09/13 01:40:38;;;;;;;3.17;1.52;;;12.20;90.70;;;;;;5075081;28;20190;-63
2022/09/13 01:43:25;;;;;;;3.05;1.80;;;12.20;90.70;;;;;;5074372;28;20236;-63
2022/09/13 01:46:03;;;;;;;2.90;2.00;;;12.20;90.60;;;;;;5074840;28;20198;-64
2022/09/13 01:48:44;;;;;;;3.33;1.98;;;12.20;91.00;;;;;;5064356;28;20589;-64
2022/09/13 01:51:16;;;;;;;3.30;1.73;;;12.10;91.60;;;;;;5074483;28;20221;-63
2022/09/13 01:53:58;;;;;;;5.47;1.60;;;12.20;91.90;;;;;;5074953;28;20186;-63
2022/09/13 01:56:33;;;;;;;2.42;1.60;;;12.20;92.00;;;;;;5074289;28;20189;-63
2022/09/13 01:59:05;;;;;;;2.55;1.70;;;12.10;91.70;;;;;;5074076;28;20639;-63
2022/09/13 02:01:38;;;;;;;3.35;1.95;;;12.20;91.80;;;;;;5074631;28;20201;-63
2022/09/13 02:04:09;;;;;;;2.72;1.35;;;12.20;91.80;;;;;;5074362;28;20707;-63
2022/09/13 02:06:45;;;;;;;2.40;1.35;;;12.20;91.60;;;;;;5074511;28;20178;-63
2022/09/13 02:09:16;;;;;;;2.60;1.50;;;12.20;91.50;;;;;;5074293;28;20516;-63
2022/09/13 02:11:46;;;;;;;2.58;1.50;;;12.20;91.30;;;;;;5074070;28;20590;-64
2022/09/13 02:14:16;;;;;;;5.70;1.45;;;12.20;91.50;;;;;;5074341;28;20550;-64
2022/09/13 02:16:50;;;;;;;2.60;1.33;;;12.20;91.60;;;;;;5073916;28;20239;-63
2022/09/13 02:19:21;;;;;;;6.68;1.60;;;12.20;91.80;;;;;;5074352;28;20275;-63
2022/09/13 02:21:55;;;;;;;2.58;1.70;;;12.30;91.60;;;;;;5073870;28;20197;-63
2022/09/13 02:24:28;;;;;;;2.40;1.33;;;12.30;91.30;;;;;;5073977;28;20200;-63
2022/09/13 02:27:02;;;;;;;2.42;1.50;;;12.20;91.10;;;;;;5056185;28;20655;-64
2022/09/13 02:29:30;;;;;;;3.20;1.73;;;12.20;90.90;;;;;;5073506;28;20632;-64
2022/09/13 02:32:04;;;;;;;3.00;1.50;;;12.20;90.90;;;;;;5070285;28;20197;-64
2022/09/13 02:34:36;;;;;;;2.45;1.40;;;12.20;90.90;;;;;;5073739;28;20189;-62
2022/09/13 02:37:05;;;;;;;2.55;1.73;;;12.20;90.90;;;;;;5072978;28;20271;-63
2022/09/13 02:39:36;;;;;;;3.47;1.42;;;12.10;90.90;;;;;;5073760;28;20196;-63
2022/09/13 02:42:12;;;;;;;3.60;1.48;;;12.10;90.80;;;;;;5072990;28;20259;-63
2022/09/13 02:44:43;;;;;;;2.50;1.50;;;12.10;91.00;;;;;;5073877;28;20197;-63
2022/09/13 02:47:26;;;;;;;2.65;1.60;;;12.10;91.20;;;;;;5073826;28;20189;-63
2022/09/13 02:50:01;;;;;;;2.75;1.90;;;12.10;91.10;;;;;;5073440;28;20567;-63
2022/09/13 02:52:41;;;;;;;3.58;1.40;;;12.00;90.90;;;;;;5073525;28;20731;-63
2022/09/13 02:55:16;;;;;;;2.42;1.35;;;12.00;91.20;;;;;;5073542;28;20243;-63
2022/09/13 02:57:55;;;;;;;2.38;1.25;;;12.00;91.10;;;;;;5073758;28;20672;-64
2022/09/13 03:00:23;;;;;;;2.20;1.40;;;11.90;90.40;;;;;;5073193;28;20181;-63
2022/09/13 03:02:54;;;;;;;2.13;1.20;;;11.80;90.50;;;;;;5073337;28;20259;-63
2022/09/13 03:05:22;;;;;;;2.35;1.27;;;11.80;90.80;;;;;;5072891;28;20190;-63
2022/09/13 03:07:50;;;;;;;2.55;1.45;;;11.80;91.10;;;;;;5073217;28;20190;-63
2022/09/13 03:10:18;;;;;;;2.30;1.50;;;11.80;91.20;;;;;;5073078;28;20283;-63
2022/09/13 03:13:10;;;;;;;3.15;1.92;;;11.80;91.40;;;;;;5073110;28;20235;-63
2022/09/13 03:15:51;;;;;;;5.10;1.40;;;11.80;91.50;;;;;;5072680;28;20236;-63
2022/09/13 03:18:37;;;;;;;3.47;1.60;;;11.80;91.80;;;;;;5073207;28;20197;-63
2022/09/13 03:21:12;;;;;;;2.30;1.48;;;11.80;91.80;;;;;;5072651;28;20716;-63
2022/09/13 03:23:52;;;;;;;3.05;1.40;;;11.80;91.90;;;;;;5073104;28;20190;-63
2022/09/13 03:26:41;;;;;;;2.25;1.52;;;11.80;91.80;;;;;;5072845;28;20579;-63
2022/09/13 03:29:23;;;;;;;2.22;1.30;;;11.70;91.60;;;;;;5073148;28;20205;-63
2022/09/13 03:31:57;;;;;;;2.83;1.40;;;11.70;91.80;;;;;;5072384;28;20287;-63
2022/09/13 03:34:33;;;;;;;3.53;1.30;;;11.70;91.70;;;;;;5073031;28;20185;-63
2022/09/13 03:37:10;;;;;;;3.40;1.20;;;11.70;91.80;;;;;;5072323;28;20225;-63
2022/09/13 03:39:42;;;;;;;3.35;1.20;;;11.70;91.70;;;;;;5072813;28;20189;-63
2022/09/13 03:42:16;;;;;;;3.72;1.23;;;11.70;91.40;;;;;;5072316;28;20190;-64
2022/09/13 03:44:46;;;;;;;2.90;1.40;;;11.60;91.40;;;;;;5072365;28;20190;-63
2022/09/13 03:47:17;;;;;;;2.20;1.30;;;11.60;91.30;;;;;;5072088;28;20522;-64
2022/09/13 03:49:47;;;;;;;2.45;1.10;;;11.60;91.40;;;;;;5072616;28;20197;-64
2022/09/13 03:52:14;;;;;;;3.20;2.03;;;11.60;91.70;;;;;;5072054;28;20217;-63
2022/09/13 03:54:41;;;;;;;2.67;1.70;;;11.60;92.10;;;;;;5072530;28;20644;-63
2022/09/13 03:57:11;;;;;;;2.20;1.48;;;11.60;92.20;;;;;;5072248;28;20193;-63
2022/09/13 03:59:41;;;;;;;2.45;1.20;;;11.60;92.40;;;;;;5072769;28;20205;-63
2022/09/13 04:02:10;;;;;;;2.70;1.25;;;11.70;92.80;;;;;;5072719;28;20274;-63
2022/09/13 04:04:39;;;;;;;2.65;1.55;;;11.70;93.40;;;;;;5072060;28;20189;-63
2022/09/13 04:07:08;;;;;;;2.83;1.60;;;11.70;93.40;;;;;;5072170;28;20204;-63
2022/09/13 04:09:35;;;;;;;6.53;1.35;;;11.70;93.30;;;;;;5072488;28;20228;-63
2022/09/13 04:12:02;;;;;;;3.13;1.60;;;11.70;93.10;;;;;;5072096;28;20214;-63
2022/09/13 04:14:30;;;;;;;2.70;1.60;;;11.70;93.10;;;;;;5072540;28;20193;-64
2022/09/13 04:16:58;;;;;;;3.17;1.77;;;11.70;93.00;;;;;;5072222;28;20185;-63
2022/09/13 04:19:26;;;;;;;2.42;1.50;;;11.70;93.00;;;;;;5072695;28;20186;-63
2022/09/13 04:21:55;;;;;;;2.10;1.20;;;11.80;93.60;;;;;;5072164;28;20186;-63
2022/09/13 04:24:26;;;;;;;3.25;1.20;;;11.80;93.30;;;;;;5072365;28;20190;-63
2022/09/13 04:26:55;;;;;;;2.53;1.20;;;11.80;93.30;;;;;;5071254;28;20182;-63
2022/09/13 04:29:24;;;;;;;2.00;1.23;;;11.80;92.80;;;;;;5072139;28;20660;-63
2022/09/13 04:31:53;;;;;;;7.47;1.77;;;11.80;92.60;;;;;;5071740;28;20212;-63
2022/09/13 04:34:21;;;;;;;8.25;1.52;;;11.70;92.90;;;;;;5071924;28;20270;-63
2022/09/13 04:36:49;;;;;;;2.00;1.20;;;11.70;93.30;;;;;;5071197;28;20551;-62
2022/09/13 04:39:17;;;;;;;2.30;1.60;;;11.70;93.30;;;;;;5072624;28;20541;-63
2022/09/13 04:41:47;;;;;;;4.72;1.63;;;11.80;93.30;;;;;;5072030;28;20192;-64
2022/09/13 04:44:15;;;;;;;1.90;1.10;;;11.80;93.00;;;;;;5072242;28;20197;-63
2022/09/13 04:46:42;;;;;;;2.40;1.50;;;11.70;92.40;;;;;;5071779;28;20186;-63
2022/09/13 04:49:10;;;;;;;2.88;1.60;;;11.60;91.90;;;;;;5072176;28;20225;-63
2022/09/13 04:51:38;;;;;;;4.95;2.25;;;11.50;91.90;;;;;;5071955;28;20244;-63
2022/09/13 04:54:05;;;;;;;6.82;2.00;;;11.50;92.10;;;;;;5072072;28;20246;-62
2022/09/13 04:56:38;;;;;;;6.10;2.22;;;11.50;92.20;;;;;;5073594;28;20186;-63
2022/09/13 04:59:07;;;;;;;4.70;2.17;;;11.50;92.20;;;;;;5076055;28;20186;-63
2022/09/13 05:01:36;;;;;;;2.28;1.45;;;11.40;92.50;;;;;;5075612;28;20241;-63
2022/09/13 05:04:04;;;;;;;3.10;1.48;;;11.40;92.60;;;;;;5075921;28;20666;-63
2022/09/13 05:06:31;;;;;;;2.38;1.30;;;11.40;92.80;;;;;;5075515;28;20193;-63
2022/09/13 05:08:58;;;;;;;8.95;1.50;;;11.40;92.90;;;;;;5075918;28;20186;-63
2022/09/13 05:11:31;;;;;;;3.03;1.60;;;11.40;93.10;;;;;;5075246;28;20196;-63
2022/09/13 05:14:00;;;;;;;2.95;1.40;;;11.40;93.50;;;;;;5075815;28;20674;-63
2022/09/13 05:16:31;;;;;;;2.20;1.30;;;11.50;93.40;;;;;;5069517;28;20222;-65
2022/09/13 05:18:58;;;;;;;3.85;1.38;;;11.60;93.70;;;;;;5073275;28;20197;-64
2022/09/13 05:21:27;;;;;;;6.00;1.73;;;11.60;93.60;;;;;;5063507;28;20213;-65
2022/09/13 05:23:55;;;;;;;6.18;3.88;;;11.70;93.70;;;;;;5072575;28;20641;-63
2022/09/13 05:26:24;;;;;;;11.32;5.25;;;11.70;93.60;;;;;;5074186;28;20208;-63
2022/09/13 05:28:52;;;;;;;10.70;6.90;;;11.80;93.50;;;;;;5072828;28;20190;-63
2022/09/13 05:31:21;;;;;;;14.25;7.07;;;11.80;93.30;;;;;;5075164;28;20197;-63
2022/09/13 05:33:54;;;;;;;7.30;3.63;;;11.80;93.20;;;;;;5075028;28;20236;-63
2022/09/13 05:36:21;;;;;;;6.03;2.50;;;11.90;92.90;;;;;;5073915;28;20559;-63
2022/09/13 05:38:49;;;;;;;4.45;2.15;;;11.90;92.60;;;;;;5075031;28;20741;-64
2022/09/13 05:41:16;;;;;;;3.13;2.20;;;12.00;92.40;;;;;;5074456;28;20547;-64
2022/09/13 05:43:43;;;;;;;3.70;1.98;;;12.00;92.70;;;;;;5075251;28;20193;-64
2022/09/13 05:46:13;;;;;;;6.25;2.80;;;12.10;92.90;;;;;;5074816;28;20194;-63
2022/09/13 05:48:41;;;;;;;4.57;3.05;;;12.10;93.20;;;;;;5074130;28;20185;-63
2022/09/13 05:51:12;;;;;;;5.78;2.90;;;12.20;93.20;;;;;;5074803;28;20606;-63
2022/09/13 05:53:40;;;;;;;4.90;3.20;;;12.30;93.50;;;;;;5072781;28;20190;-63
2022/09/13 05:56:08;;;;;;;4.30;2.58;;;12.30;93.60;;;;;;5074836;28;20219;-63
2022/09/13 05:58:40;;;;;;;7.80;2.25;;;12.30;93.70;;;;;;5074753;28;20619;-63
2022/09/13 06:01:07;;;;;;;6.97;2.17;;;12.40;93.90;;;;;;5074250;28;20698;-63
2022/09/13 06:03:35;;;;;;;3.15;1.50;;;12.40;94.00;;;;;;5071881;28;20178;-63
2022/09/13 06:06:03;;;;;;;3.25;1.55;;;12.40;93.70;;;;;;5068039;28;20663;-63
2022/09/13 06:08:33;;;;;;;3.72;1.63;;;12.50;93.80;;;;;;5071957;28;20194;-63
2022/09/13 06:11:02;;;;;;;3.28;1.58;;;12.40;94.00;;;;;;5072355;28;20275;-63
2022/09/13 06:13:29;;;;;;;2.70;1.55;;;12.50;94.30;;;;;;5066818;28;20189;-63
2022/09/13 06:15:58;;;;;;;3.97;1.50;;;12.60;94.40;;;;;;5073378;28;20197;-63
2022/09/13 06:18:26;;;;;;;3.55;1.40;;;12.80;94.60;;;;;;5073292;28;20232;-63
2022/09/13 06:20:58;;;;;;;5.53;1.65;;;13.00;94.70;;;;;;5067482;28;20289;-64
2022/09/13 06:23:25;;;;;;;3.78;2.10;;;13.20;94.70;;;;;;5066503;28;20194;-64
2022/09/13 06:26:01;;;;;;;9.25;2.83;;;13.40;94.80;;;;;;5072541;28;20269;-64
2022/09/13 06:28:29;;;;;;;4.07;1.80;;;13.60;94.80;;;;;;5073271;28;20190;-64
2022/09/13 06:31:04;;;;;;;6.85;1.80;;;13.80;94.80;;;;;;5072388;28;20344;-63
2022/09/13 06:33:32;;;;;;;3.67;2.80;;;13.90;94.60;;;;;;5071080;28;20190;-63
2022/09/13 06:36:01;;;;;;;4.63;2.58;;;14.10;94.60;;;;;;5071005;28;20232;-63
2022/09/13 06:38:28;;;;;;;18.17;4.43;;;14.20;94.40;;;;;;5071949;28;20197;-63
2022/09/13 06:41:04;;;;;;;4.13;2.47;;;14.40;94.40;;;;;;5072269;28;20221;-63
2022/09/13 06:43:32;;;;;;;3.47;2.07;;;14.60;94.30;;;;;;5071378;28;20438;-64
2022/09/13 06:46:01;;;;;;;3.70;1.90;;;14.80;94.30;;;;;;5070990;28;20523;-64
2022/09/13 06:48:34;;;;;;;3.90;2.43;;;14.90;94.10;;;;;;5072386;28;20761;-63
2022/09/13 06:51:02;;;;;;;2.90;1.70;;;15.20;94.10;;;;;;5073653;28;20444;-64
2022/09/13 06:53:29;;;;;;;10.03;1.73;;;15.40;93.20;;;;;;5074264;28;20436;-63
2022/09/13 06:56:07;;;;;;;3.40;1.90;;;15.60;93.00;;;;;;5074111;28;20479;-63
2022/09/13 06:58:36;;;;;;;2.63;1.60;;;15.90;93.20;;;;;;5073976;28;20523;-64
2022/09/13 07:01:11;;;;;;;3.60;1.80;;;16.20;92.90;;;;;;5071801;28;20524;-64
2022/09/13 07:03:41;;;;;;;7.30;2.10;;;16.60;93.10;;;;;;5059104;28;20441;-64
2022/09/13 07:06:10;;;;;;;4.63;2.30;;;17.00;92.70;;;;;;5054187;28;20444;-63
2022/09/13 07:08:38;;;;;;;2.77;1.80;;;17.50;89.80;;;;;;5054295;28;20476;-64
2022/09/13 07:11:07;;;;;;;2.57;1.67;;;18.10;85.00;;;;;;5054099;28;20476;-64
2022/09/13 07:13:34;;;;;;;3.03;1.60;;;18.70;89.00;;;;;;5054222;28;20437;-64
2022/09/13 07:16:09;;;;;;;2.33;1.33;;;19.60;89.60;;;;;;5053185;28;20504;-64
2022/09/13 07:18:37;;;;;;;4.33;3.23;;;20.80;86.00;;;;;;5053707;28;20437;-64
2022/09/13 07:21:06;;;;;;;6.80;2.10;;;22.60;83.00;;;;;;5053948;28;20483;-64
2022/09/13 07:23:35;;;;;;;2.47;1.20;;;24.90;74.30;;;;;;5053716;28;20433;-64
2022/09/13 07:26:04;;;;;;;2.00;1.00;;;26.60;59.00;;;;;;5053715;28;20491;-64
2022/09/13 07:28:34;;;;;;;2.60;1.00;;;27.90;51.60;;;;;;5053710;28;20454;-64
2022/09/13 07:31:12;;;;;;;4.07;1.07;;;28.60;50.40;;;;;;5053675;28;20490;-64
2022/09/13 07:33:40;;;;;;;1.97;0.97;;;29.90;46.10;;;;;;5053486;28;20997;-64
2022/09/13 07:36:08;;;;;;;6.60;1.70;;;31.00;45.30;;;;;;5053607;28;20892;-64
2022/09/13 07:38:36;;;;;;;2.07;0.63;;;32.40;38.90;;;;;;5053620;28;20509;-69
2022/09/13 07:41:05;;;;;;;2.80;1.03;;;33.10;37.50;;;;;;5053603;28;20464;-66
2022/09/13 07:43:34;;;;;;;3.70;1.23;;;34.80;35.50;;;;;;5053423;28;20429;-65
2022/09/13 07:46:03;;;;;;;2.70;1.13;;;36.50;31.80;;;;;;5053567;28;20479;-65
2022/09/13 07:48:33;;;;;;;2.50;0.80;;;37.80;29.60;;;;;;5053443;28;20780;-64
2022/09/13 07:51:02;;;;;;;1.83;0.70;;;39.20;27.40;;;;;;5053622;28;20445;-65
2022/09/13 07:53:31;;;;;;;2.00;0.87;;;40.00;24.20;;;;;;5053281;28;20481;-65
2022/09/13 07:56:02;;;;;;;3.10;0.70;;;40.30;24.80;;;;;;5053266;28;20522;-62
2022/09/13 07:58:32;;;;;;;4.43;0.77;;;40.70;22.90;;;;;;5053448;28;20479;-63
2022/09/13 08:01:07;;;;;;;2.20;0.90;;;40.80;23.20;;;;;;5053345;28;20441;-62
2022/09/13 08:03:38;;;;;;;2.10;0.80;;;41.60;22.70;;;;;;5053130;28;20468;-62
2022/09/13 08:06:09;;;;;;;1.67;0.73;;;42.80;22.30;;;;;;5053309;28;20433;-63
2022/09/13 08:08:37;;;;;;;4.60;1.00;;;44.10;20.30;;;;;;5053210;28;20456;-63
2022/09/13 08:11:06;;;;;;;2.00;1.00;;;45.20;20.30;;;;;;5053064;28;20437;-63
2022/09/13 08:13:33;;;;;;;3.10;0.70;;;46.00;18.30;;;;;;5053060;28;20571;-64
2022/09/13 08:16:04;;;;;;;3.60;0.80;;;46.60;17.20;;;;;;5053072;28;21362;-63
2022/09/13 08:18:31;;;;;;;3.00;1.17;;;47.20;17.90;;;;;;5053049;28;20444;-62
2022/09/13 08:20:58;;;;;;;2.20;0.73;;;47.90;16.60;;;;;;5052976;28;20480;-62
2022/09/13 08:23:26;;;;;;;2.43;0.60;;;48.00;15.70;;;;;;5052639;28;20433;-63
2022/09/13 08:25:53;;;;;;;1.80;0.70;;;47.80;15.60;;;;;;5052869;28;20444;-62
2022/09/13 08:28:22;;;;;;;1.90;0.80;;;48.10;15.30;;;;;;5052992;28;20845;-63
2022/09/13 08:30:49;;;;;;;1.67;0.60;;;48.50;15.30;;;;;;5053437;28;20437;-63
2022/09/13 08:33:17;;;;;;;2.30;0.80;;;49.00;14.90;;;;;;5057145;28;20591;-63
2022/09/13 08:35:51;;;;;;;2.47;1.00;;;49.90;15.40;;;;;;5056630;28;20547;-63
2022/09/13 08:38:19;;;;;;;3.30;1.00;;;50.70;14.40;;;;;;5056968;28;20792;-63
2022/09/13 08:40:51;;;;;;;6.13;0.90;;;51.20;13.40;;;;;;5057169;28;20472;-64
2022/09/13 08:43:28;;;;;;;2.33;1.17;;;51.90;13.30;;;;;;5056946;28;20538;-63
2022/09/13 08:46:01;;;;;;;2.77;1.07;;;52.50;13.40;;;;;;5056934;28;20530;-63
2022/09/13 08:48:34;;;;;;;3.30;0.80;;;53.20;13.50;;;;;;5057017;28;20437;-63
2022/09/13 08:51:06;;;;;;;2.77;1.00;;;53.60;12.70;;;;;;5056603;28;20440;-63
2022/09/13 08:53:43;;;;;;;2.37;0.70;;;54.10;12.90;;;;;;5056628;28;20440;-63
2022/09/13 08:56:13;;;;;;;2.63;0.90;;;54.60;12.50;;;;;;5056659;28;20467;-63
2022/09/13 08:58:53;;;;;;;6.27;0.97;;;54.50;11.40;;;;;;5056813;28;20486;-63
2022/09/13 09:01:31;;;;;;;4.10;1.00;;;54.50;10.60;;;;;;5056780;28;20790;-63
2022/09/13 09:04:05;;;;;;;1.87;0.90;;;53.90;11.50;;;;;;5056289;28;20440;-64
2022/09/13 09:06:35;;;;;;;1.93;0.80;;;53.90;11.20;;;;;;5056741;28;20527;-63
2022/09/13 09:09:06;;;;;;;2.97;0.90;;;54.00;11.50;;;;;;5055981;28;20425;-63
2022/09/13 09:11:40;;;;;;;2.87;0.70;;;54.40;11.00;;;;;;5056418;28;20468;-63
2022/09/13 09:14:14;;;;;;;2.70;0.80;;;54.80;10.90;;;;;;5056443;28;20440;-64
2022/09/13 09:16:45;;;;;;;3.97;0.77;;;55.10;11.40;;;;;;5056130;28;20432;-64
2022/09/13 09:19:20;;;;;;;3.63;1.50;;;54.90;10.90;;;;;;5056316;28;20535;-63
2022/09/13 09:21:49;;;;;;;4.90;1.37;;;54.90;10.70;;;;;;5056455;28;20502;-63
2022/09/13 09:24:20;;;;;;;2.87;1.50;;;55.20;11.20;;;;;;5056096;28;20444;-63
2022/09/13 09:26:48;;;;;;;2.80;1.07;;;55.70;10.60;;;;;;5055739;28;20523;-63
2022/09/13 09:29:19;;;;;;;3.23;1.10;;;56.10;10.70;;;;;;5056242;28;20523;-63
2022/09/13 09:31:57;;;;;;;3.30;0.90;;;56.80;10.50;;;;;;5056027;28;20443;-64
2022/09/13 09:34:41;;;;;;;4.73;1.10;;;57.00;10.30;;;;;;5056016;28;20437;-63
2022/09/13 09:37:16;;;;;;;3.53;1.10;;;56.90;10.10;;;;;;5055985;28;20464;-64
2022/09/13 09:39:43;;;;;;;3.80;1.10;;;57.30;9.30;;;;;;5055771;28;20941;-63
2022/09/13 09:42:14;;;;;;;2.43;1.10;;;57.70;9.50;;;;;;5055410;28;20480;-63
2022/09/13 09:44:43;;;;;;;3.83;1.07;;;58.10;9.90;;;;;;5055889;28;20446;-63
2022/09/13 09:47:15;;;;;;;2.33;0.90;;;58.50;10.00;;;;;;5055838;28;20429;-64
2022/09/13 09:52:37;;;;;;;1.73;0.90;;;58.30;8.60;;;;;;5055299;28;20440;-63
2022/09/13 09:55:24;;;;;;;1.93;0.80;;;57.70;8.90;;;;;;5055773;28;20527;-63
2022/09/13 09:57:56;;;;;;;2.10;0.83;;;57.70;8.60;;;;;;5055531;28;20447;-63
2022/09/13 10:00:25;;;;;;;3.20;0.80;;;57.70;8.50;;;;;;5055471;28;20445;-64
2022/09/13 10:02:56;;;;;;;1.90;0.80;;;57.90;8.90;;;;;;5055433;28;20571;-64
2022/09/13 10:05:26;;;;;;;2.97;1.00;;;58.10;8.50;;;;;;5055555;28;20432;-64
2022/09/13 10:08:00;;;;;;;1.83;0.83;;;57.70;7.80;;;;;;5055258;28;20828;-63
2022/09/13 10:10:35;;;;;;;2.10;1.10;;;56.50;8.30;;;;;;5052008;28;20834;-63
2022/09/13 10:13:04;;;;;;;1.83;0.90;;;56.40;9.10;;;;;;5073854;28;21269;-63
2022/09/13 10:15:34;;;;;;;2.60;1.00;;;56.70;8.70;;;;;;5073039;28;21372;-63
2022/09/13 10:18:05;;;;;;;2.17;0.70;;;57.10;9.30;;;;;;5073750;28;21103;-64
2022/09/13 10:20:34;;;;;;;5.33;1.07;;;57.80;9.60;;;;;;5073242;28;20459;-63
2022/09/13 10:23:26;;;;;;;2.87;1.10;;;58.10;9.00;;;;;;5073418;28;20581;-63
2022/09/13 10:26:02;;;;;;;2.43;1.00;;;58.90;8.90;;;;;;5071125;28;20956;-63
2022/09/13 10:28:32;;;;;;;1.97;1.00;;;59.40;8.90;;;;;;5072263;28;20435;-63
2022/09/13 10:31:04;;;;;;;2.30;1.20;;;59.60;8.80;;;;;;5073573;28;20473;-63
2022/09/13 10:33:34;;;;;;;1.80;0.90;;;60.00;8.20;;;;;;5073104;28;20531;-63
2022/09/13 10:36:07;;;;;;;2.20;0.90;;;59.40;7.70;;;;;;5073269;28;20510;-63
2022/09/13 10:38:38;;;;;;;2.10;0.70;;;58.00;8.40;;;;;;5074024;28;20993;-63
2022/09/13 10:41:08;;;;;;;2.57;0.90;;;57.10;9.00;;;;;;5074487;28;20479;-63
2022/09/13 10:43:35;;;;;;;2.53;1.03;;;57.60;9.20;;;;;;5074449;28;20898;-63
2022/09/13 10:46:05;;;;;;;1.80;1.10;;;58.10;9.30;;;;;;5074597;28;20538;-63
2022/09/13 10:48:45;;;;;;;1.70;0.90;;;58.90;8.40;;;;;;5074363;28;20530;-63
2022/09/13 10:51:33;;;;;;;2.80;0.97;;;59.60;8.70;;;;;;5074338;28;20478;-69
2022/09/13 10:54:18;;;;;;;2.80;1.00;;;60.00;8.90;;;;;;5053454;28;20512;-63
2022/09/13 10:56:45;;;;;;;2.00;1.13;;;60.10;8.70;;;;;;5054325;28;20523;-64
2022/09/13 10:59:23;;;;;;;1.80;1.00;;;60.40;8.40;;;;;;5054543;28;20472;-63
2022/09/13 11:02:14;;;;;;;2.17;1.00;;;60.50;8.20;;;;;;5054463;28;20464;-63
2022/09/13 11:05:17;;;;;;;2.13;1.27;;;60.50;8.00;;;;;;5052492;28;20777;-64
2022/09/13 11:08:35;;;;;;;3.00;1.50;;;60.50;8.80;;;;;;5049207;28;20456;-63
2022/09/13 11:11:11;;;;;;;3.03;1.10;;;60.60;7.90;;;;;;5036583;28;20491;-63
2022/09/13 11:13:52;;;;;;;2.73;1.20;;;60.60;8.00;;;;;;5054267;28;20922;-63
2022/09/13 11:16:37;;;;;;;1.70;1.13;;;60.00;8.60;;;;;;5054128;28;20476;-63
2022/09/13 11:19:23;;;;;;;5.00;1.13;;;59.00;8.80;;;;;;5054083;28;20531;-63
2022/09/13 11:22:05;;;;;;;3.40;1.10;;;59.00;8.70;;;;;;5054219;28;20463;-63
2022/09/13 11:24:46;;;;;;;2.00;1.43;;;59.10;8.40;;;;;;5053903;28;20484;-63
2022/09/13 11:27:22;;;;;;;3.03;1.20;;;58.80;8.80;;;;;;5053965;28;21009;-63
2022/09/13 11:30:21;;;;;;;1.77;1.00;;;58.90;8.50;;;;;;5053922;28;20590;-63
2022/09/13 11:33:18;;;;;;;1.60;0.80;;;59.10;8.30;;;;;;5011708;28;20434;-63
2022/09/13 11:35:54;;;;;;;2.27;1.20;;;59.10;9.10;;;;;;5052644;28;20547;-63
2022/09/13 11:38:36;;;;;;;3.23;0.80;;;59.40;9.70;;;;;;5053767;28;20930;-63
2022/09/13 11:41:12;;;;;;;1.80;0.93;;;;;;;;;;5053720;28;20830;-63
2022/09/13 11:43:50;;;;;;;1.80;0.80;;;;;;;;;;5053788;28;20541;-63
2022/09/13 11:46:24;;;;;;;1.93;0.80;;;;;;;;;;5053249;28;20421;-64
2022/09/13 11:48:56;;;;;;;2.10;1.10;;;;;;;;;;5053682;28;20443;-63
2022/09/13 11:51:29;;;;;;;2.13;1.00;;;;;;;;;;5053045;28;20429;-62
2022/09/13 11:54:00;;;;;;;1.90;0.90;;;;;;;;;;5053146;28;20491;-62
2022/09/13 11:56:33;;;;;;;2.40;0.97;;;;;;;;;;5053320;28;20444;-62
2022/09/13 11:59:07;;;;;;;7.63;1.30;;;;;;;;;;5053432;28;20931;-62
2022/09/13 12:01:37;;;;;;;2.23;0.80;;;;;;;;;;5053136;28;20480;-62
2022/09/13 12:04:07;;;;;;;2.77;0.90;;;;;;;;;;5053279;28;20541;-62
2022/09/13 12:06:36;;;;;;;2.33;1.00;;;;;;;;;;5053074;28;20445;-62
2022/09/13 12:09:05;;;;;;;3.90;1.17;;;;;;;;;;5053138;28;20479;-62
2022/09/13 12:11:35;;;;;;;4.23;1.10;;;;;;;;;;5053198;28;20990;-63
2022/09/13 12:14:04;;;;;;;2.20;1.10;;;;;;;;;;5053110;28;20922;-63
2022/09/13 12:16:33;;;;;;;3.60;1.10;;;;;;;;;;5053043;28;20499;-63
2022/09/13 12:19:02;;;;;;;2.73;0.80;;;;;;;;;;5053044;28;20444;-62
2022/09/13 12:21:32;;;;;;;1.70;0.80;;;;;;;;;;5052820;28;20444;-62
2022/09/13 12:24:03;;;;;;;3.20;0.97;;;;;;;;;;5052971;28;20542;-62
2022/09/13 12:26:32;;;;;;;3.00;0.90;;;;;;;;;;5053275;28;20449;-62
2022/09/13 12:29:03;;;;;;;2.10;0.83;;;;;;;;;;5053023;28;20510;-62
2022/09/13 12:31:32;;;;;;;2.00;1.00;;;;;;;;;;5053099;28;20443;-62
2022/09/13 12:34:00;;;;;;;2.57;1.30;;;;;;;;;;5052622;28;20444;-62
2022/09/13 12:36:38;;;;;;;3.73;1.10;;;;;;;;;;5052664;28;20461;-62
2022/09/13 12:39:16;;;;;;;2.67;0.90;;;;;;;;;;5052876;28;20433;-62
2022/09/13 12:41:49;;;;;;;2.93;1.00;;;;;;;;;;5052552;28;20497;-63
2022/09/13 12:44:37;;;;;;;2.40;1.17;;;;;;;;;;5052639;28;20575;-62
2022/09/13 12:47:13;;;;;;;2.60;0.80;;;;;;;;;;5035088;28;20445;-62
2022/09/13 12:50:05;;;;;;;3.50;0.90;;;;;;;;;;5052792;28;20870;-62
2022/09/13 12:52:36;;;;;;;2.70;1.00;;;;;;;;;;5014163;28;20837;-62
2022/09/13 12:55:22;;;;;;;2.67;0.73;;;;;;;;;;5052652;28;20444;-62
2022/09/13 12:57:54;;;;;;;4.20;1.00;;;;;;;;;;5052916;28;20440;-63
2022/09/13 13:00:23;;;;;;;2.20;0.90;;;;;;;;;;5052644;28;20832;-63
2022/09/13 13:03:10;;;;;;;3.13;0.80;;;;;;;;;;5052382;28;20439;-63
2022/09/13 13:05:41;;;;;;;1.77;0.80;;;;;;;;;;5052909;28;20909;-63
2022/09/13 13:08:26;;;;;;;5.10;0.90;;;;;;;;;;5052540;28;20472;-63
2022/09/13 13:11:02;;;;;;;3.00;0.90;;;;;;;;;;5052486;28;20821;-63
2022/09/13 13:13:33;;;;;;;4.00;1.10;;;;;;;;;;5052636;28;20447;-63
2022/09/13 13:16:06;;;;;;;3.90;1.10;;;;;;;;;;5052302;28;20472;-64
2022/09/13 13:18:43;;;;;;;2.93;0.70;;;;;;;;;;5055890;28;20775;-62
2022/09/13 13:21:27;;;;;;;2.73;1.20;;;;;;;;;;5056408;28;20514;-62
2022/09/13 13:24:13;;;;;;;2.00;1.00;;;;;;;;;;5056107;28;20516;-63
2022/09/13 13:26:47;;;;;;;1.90;0.70;;;;;;;;;;5055774;28;20447;-62
2022/09/13 13:29:18;;;;;;;3.27;0.90;;;;;;;;;;5056155;28;20435;-63
2022/09/13 13:32:06;;;;;;;2.87;1.00;;;;;;;;;;5056166;28;20467;-64
2022/09/13 13:34:38;;;;;;;2.60;1.00;;;;;;;;;;5055557;28;21012;-62